sensor_id;sensor_type;location;lat;lon;timestamp;P1;durP1;ratioP1;P2;durP2;ratioP2
20619;SDS011;10469;42.720;23.252;2023-04-15T00:01:25;11.40;;;4.68;;
20619;SDS011;10469;42.720;23.252;2023-04-15T00:03:52;9.32;;;3.90;;
20619;SDS011;10469;42.720;23.252;2023-04-15T00:06:19;9.82;;;4.38;;
20619;SDS011;10469;42.720;23.252;2023-04-15T00:08:46;6.95;;;3.97;;
20619;SDS011;10469;42.720;23.252;2023-04-15T00:11:12;7.45;;;4.28;;
20619;SDS011;10469;42.720;23.252;2023-04-15T00:13:38;6.70;;;4.20;;
20619;SDS011;10469;42.720;23.252;2023-04-15T00:16:05;5.53;;;3.85;;
20619;SDS011;10469;42.720;23.252;2023-04-15T00:18:32;6.47;;;3.67;;
20619;SDS011;10469;42.720;23.252;2023-04-15T00:20:59;6.70;;;3.90;;
20619;SDS011;10469;42.720;23.252;2023-04-15T00:23:24;8.35;;;3.95;;
20619;SDS011;10469;42.720;23.252;2023-04-15T00:25:50;6.90;;;3.70;;
20619;SDS011;10469;42.720;23.252;2023-04-15T00:28:16;8.65;;;3.65;;
20619;SDS011;10469;42.720;23.252;2023-04-15T00:30:42;6.13;;;3.42;;
20619;SDS011;10469;42.720;23.252;2023-04-15T00:33:08;7.75;;;4.13;;
20619;SDS011;10469;42.720;23.252;2023-04-15T00:35:34;7.30;;;3.45;;
20619;SDS011;10469;42.720;23.252;2023-04-15T00:38:04;7.10;;;4.28;;
20619;SDS011;10469;42.720;23.252;2023-04-15T00:40:31;10.80;;;4.22;;
20619;SDS011;10469;42.720;23.252;2023-04-15T00:42:57;8.63;;;4.32;;
20619;SDS011;10469;42.720;23.252;2023-04-15T00:45:23;11.65;;;5.43;;
20619;SDS011;10469;42.720;23.252;2023-04-15T00:47:48;7.97;;;5.47;;
20619;SDS011;10469;42.720;23.252;2023-04-15T00:50:15;6.40;;;5.03;;
20619;SDS011;10469;42.720;23.252;2023-04-15T00:52:41;10.98;;;5.30;;
20619;SDS011;10469;42.720;23.252;2023-04-15T00:55:07;8.13;;;5.00;;
20619;SDS011;10469;42.720;23.252;2023-04-15T00:57:35;9.60;;;5.43;;
20619;SDS011;10469;42.720;23.252;2023-04-15T01:00:01;7.97;;;5.25;;
20619;SDS011;10469;42.720;23.252;2023-04-15T01:02:28;7.90;;;4.28;;
20619;SDS011;10469;42.720;23.252;2023-04-15T01:04:55;7.53;;;4.45;;
20619;SDS011;10469;42.720;23.252;2023-04-15T01:07:21;8.30;;;4.53;;
20619;SDS011;10469;42.720;23.252;2023-04-15T01:09:47;9.82;;;5.75;;
20619;SDS011;10469;42.720;23.252;2023-04-15T01:12:13;7.60;;;4.32;;
20619;SDS011;10469;42.720;23.252;2023-04-15T01:14:40;5.50;;;3.95;;
20619;SDS011;10469;42.720;23.252;2023-04-15T01:17:06;10.02;;;5.32;;
20619;SDS011;10469;42.720;23.252;2023-04-15T01:19:37;12.20;;;5.88;;
20619;SDS011;10469;42.720;23.252;2023-04-15T01:22:03;9.18;;;5.25;;
20619;SDS011;10469;42.720;23.252;2023-04-15T01:24:30;8.45;;;4.88;;
20619;SDS011;10469;42.720;23.252;2023-04-15T01:26:57;8.15;;;4.63;;
20619;SDS011;10469;42.720;23.252;2023-04-15T01:29:23;10.43;;;4.93;;
20619;SDS011;10469;42.720;23.252;2023-04-15T01:31:52;10.50;;;5.18;;
20619;SDS011;10469;42.720;23.252;2023-04-15T01:34:19;11.43;;;5.95;;
20619;SDS011;10469;42.720;23.252;2023-04-15T01:36:45;11.77;;;6.28;;
20619;SDS011;10469;42.720;23.252;2023-04-15T01:39:11;8.80;;;5.82;;
20619;SDS011;10469;42.720;23.252;2023-04-15T01:41:37;9.75;;;6.03;;
20619;SDS011;10469;42.720;23.252;2023-04-15T01:44:04;11.77;;;5.97;;
20619;SDS011;10469;42.720;23.252;2023-04-15T01:46:31;11.13;;;6.43;;
20619;SDS011;10469;42.720;23.252;2023-04-15T01:48:56;14.13;;;6.50;;
20619;SDS011;10469;42.720;23.252;2023-04-15T01:51:22;12.80;;;6.50;;
20619;SDS011;10469;42.720;23.252;2023-04-15T01:53:48;10.32;;;6.20;;
20619;SDS011;10469;42.720;23.252;2023-04-15T01:56:13;13.52;;;7.97;;
20619;SDS011;10469;42.720;23.252;2023-04-15T01:58:40;15.68;;;8.10;;
20619;SDS011;10469;42.720;23.252;2023-04-15T02:01:05;12.90;;;7.25;;
20619;SDS011;10469;42.720;23.252;2023-04-15T02:03:34;9.75;;;6.68;;
20619;SDS011;10469;42.720;23.252;2023-04-15T02:06:01;13.38;;;7.00;;
20619;SDS011;10469;42.720;23.252;2023-04-15T02:08:28;11.45;;;6.55;;
20619;SDS011;10469;42.720;23.252;2023-04-15T02:10:54;10.23;;;6.97;;
20619;SDS011;10469;42.720;23.252;2023-04-15T03:20:32;8.18;;;6.30;;
20619;SDS011;10469;42.720;23.252;2023-04-15T03:22:58;8.68;;;5.80;;
20619;SDS011;10469;42.720;23.252;2023-04-15T03:25:23;10.40;;;6.40;;
20619;SDS011;10469;42.720;23.252;2023-04-15T03:27:49;15.02;;;7.05;;
20619;SDS011;10469;42.720;23.252;2023-04-15T03:30:15;11.55;;;6.75;;
20619;SDS011;10469;42.720;23.252;2023-04-15T03:32:41;12.32;;;7.43;;
20619;SDS011;10469;42.720;23.252;2023-04-15T03:35:06;11.13;;;6.30;;
20619;SDS011;10469;42.720;23.252;2023-04-15T03:37:32;11.68;;;6.90;;
20619;SDS011;10469;42.720;23.252;2023-04-15T03:39:58;11.18;;;6.88;;
20619;SDS011;10469;42.720;23.252;2023-04-15T03:42:23;13.90;;;7.05;;
20619;SDS011;10469;42.720;23.252;2023-04-15T03:44:49;10.55;;;6.78;;
20619;SDS011;10469;42.720;23.252;2023-04-15T03:47:15;9.55;;;6.57;;
20619;SDS011;10469;42.720;23.252;2023-04-15T03:49:41;10.50;;;6.72;;
20619;SDS011;10469;42.720;23.252;2023-04-15T03:52:06;15.45;;;6.85;;
20619;SDS011;10469;42.720;23.252;2023-04-15T03:54:32;12.02;;;7.28;;
20619;SDS011;10469;42.720;23.252;2023-04-15T03:56:58;10.15;;;7.10;;
20619;SDS011;10469;42.720;23.252;2023-04-15T03:59:23;13.13;;;7.90;;
20619;SDS011;10469;42.720;23.252;2023-04-15T04:01:49;11.93;;;7.20;;
20619;SDS011;10469;42.720;23.252;2023-04-15T04:04:15;17.83;;;8.15;;
20619;SDS011;10469;42.720;23.252;2023-04-15T04:06:40;15.52;;;8.25;;
20619;SDS011;10469;42.720;23.252;2023-04-15T04:09:06;14.80;;;7.60;;
20619;SDS011;10469;42.720;23.252;2023-04-15T04:11:31;9.55;;;6.80;;
20619;SDS011;10469;42.720;23.252;2023-04-15T04:13:57;13.40;;;7.10;;
20619;SDS011;10469;42.720;23.252;2023-04-15T04:16:23;15.70;;;8.55;;
20619;SDS011;10469;42.720;23.252;2023-04-15T04:18:48;11.88;;;7.20;;
20619;SDS011;10469;42.720;23.252;2023-04-15T04:21:14;10.98;;;6.72;;
20619;SDS011;10469;42.720;23.252;2023-04-15T04:23:40;13.40;;;7.25;;
20619;SDS011;10469;42.720;23.252;2023-04-15T04:26:06;15.00;;;7.10;;
20619;SDS011;10469;42.720;23.252;2023-04-15T04:28:32;9.18;;;6.40;;
20619;SDS011;10469;42.720;23.252;2023-04-15T04:30:59;14.30;;;6.57;;
20619;SDS011;10469;42.720;23.252;2023-04-15T04:33:28;11.73;;;6.35;;
20619;SDS011;10469;42.720;23.252;2023-04-15T04:35:53;10.27;;;6.22;;
20619;SDS011;10469;42.720;23.252;2023-04-15T04:38:19;8.32;;;6.43;;
20619;SDS011;10469;42.720;23.252;2023-04-15T04:40:45;15.55;;;6.47;;
20619;SDS011;10469;42.720;23.252;2023-04-15T04:43:11;9.70;;;6.78;;
20619;SDS011;10469;42.720;23.252;2023-04-15T04:45:37;13.10;;;7.55;;
20619;SDS011;10469;42.720;23.252;2023-04-15T04:48:03;13.75;;;6.90;;
20619;SDS011;10469;42.720;23.252;2023-04-15T04:50:31;9.65;;;6.47;;
20619;SDS011;10469;42.720;23.252;2023-04-15T04:52:57;11.20;;;6.22;;
20619;SDS011;10469;42.720;23.252;2023-04-15T04:55:22;14.23;;;7.32;;
20619;SDS011;10469;42.720;23.252;2023-04-15T04:57:48;12.32;;;6.68;;
20619;SDS011;10469;42.720;23.252;2023-04-15T05:00:14;13.43;;;7.05;;
20619;SDS011;10469;42.720;23.252;2023-04-15T05:02:39;12.65;;;7.20;;
20619;SDS011;10469;42.720;23.252;2023-04-15T05:05:08;12.70;;;7.28;;
20619;SDS011;10469;42.720;23.252;2023-04-15T05:07:34;15.30;;;6.95;;
20619;SDS011;10469;42.720;23.252;2023-04-15T05:10:00;17.13;;;7.00;;
20619;SDS011;10469;42.720;23.252;2023-04-15T05:12:26;19.42;;;6.75;;
20619;SDS011;10469;42.720;23.252;2023-04-15T05:14:51;10.90;;;6.28;;
20619;SDS011;10469;42.720;23.252;2023-04-15T05:17:17;13.45;;;6.28;;
20619;SDS011;10469;42.720;23.252;2023-04-15T05:19:43;11.70;;;6.35;;
20619;SDS011;10469;42.720;23.252;2023-04-15T05:22:08;8.30;;;5.45;;
20619;SDS011;10469;42.720;23.252;2023-04-15T05:24:34;7.65;;;5.15;;
20619;SDS011;10469;42.720;23.252;2023-04-15T05:27:00;7.57;;;4.47;;
20619;SDS011;10469;42.720;23.252;2023-04-15T05:29:26;7.97;;;5.13;;
20619;SDS011;10469;42.720;23.252;2023-04-15T05:31:51;8.60;;;5.20;;
20619;SDS011;10469;42.720;23.252;2023-04-15T05:34:17;9.85;;;5.40;;
20619;SDS011;10469;42.720;23.252;2023-04-15T05:36:43;8.15;;;5.30;;
20619;SDS011;10469;42.720;23.252;2023-04-15T05:39:08;11.02;;;4.93;;
20619;SDS011;10469;42.720;23.252;2023-04-15T05:41:34;7.40;;;4.25;;
20619;SDS011;10469;42.720;23.252;2023-04-15T05:44:00;11.73;;;5.00;;
20619;SDS011;10469;42.720;23.252;2023-04-15T05:46:26;7.47;;;4.95;;
20619;SDS011;10469;42.720;23.252;2023-04-15T05:48:51;9.93;;;5.35;;
20619;SDS011;10469;42.720;23.252;2023-04-15T05:51:17;9.43;;;5.13;;
20619;SDS011;10469;42.720;23.252;2023-04-15T05:53:43;12.50;;;5.22;;
20619;SDS011;10469;42.720;23.252;2023-04-15T05:56:10;8.25;;;4.28;;
20619;SDS011;10469;42.720;23.252;2023-04-15T05:58:35;8.05;;;3.85;;
20619;SDS011;10469;42.720;23.252;2023-04-15T06:01:01;7.75;;;4.15;;
20619;SDS011;10469;42.720;23.252;2023-04-15T06:03:27;8.35;;;3.55;;
20619;SDS011;10469;42.720;23.252;2023-04-15T06:05:53;7.22;;;3.80;;
20619;SDS011;10469;42.720;23.252;2023-04-15T06:08:19;9.52;;;3.80;;
20619;SDS011;10469;42.720;23.252;2023-04-15T06:10:45;7.30;;;3.67;;
20619;SDS011;10469;42.720;23.252;2023-04-15T06:13:11;9.38;;;3.60;;
20619;SDS011;10469;42.720;23.252;2023-04-15T06:15:37;10.70;;;3.85;;
20619;SDS011;10469;42.720;23.252;2023-04-15T06:18:03;7.07;;;3.42;;
20619;SDS011;10469;42.720;23.252;2023-04-15T06:20:29;7.03;;;3.50;;
20619;SDS011;10469;42.720;23.252;2023-04-15T06:22:56;11.48;;;3.50;;
20619;SDS011;10469;42.720;23.252;2023-04-15T06:25:22;12.95;;;4.00;;
20619;SDS011;10469;42.720;23.252;2023-04-15T06:27:48;12.23;;;4.60;;
20619;SDS011;10469;42.720;23.252;2023-04-15T06:30:13;8.52;;;4.20;;
20619;SDS011;10469;42.720;23.252;2023-04-15T06:32:39;10.88;;;4.10;;
20619;SDS011;10469;42.720;23.252;2023-04-15T06:35:05;9.75;;;3.25;;
20619;SDS011;10469;42.720;23.252;2023-04-15T06:37:31;7.20;;;3.30;;
20619;SDS011;10469;42.720;23.252;2023-04-15T06:39:57;40.03;;;8.02;;
20619;SDS011;10469;42.720;23.252;2023-04-15T06:42:23;8.02;;;3.90;;
20619;SDS011;10469;42.720;23.252;2023-04-15T06:44:49;6.78;;;3.72;;
20619;SDS011;10469;42.720;23.252;2023-04-15T06:47:15;6.32;;;3.72;;
20619;SDS011;10469;42.720;23.252;2023-04-15T06:49:41;11.02;;;5.28;;
20619;SDS011;10469;42.720;23.252;2023-04-15T06:52:07;7.57;;;3.88;;
20619;SDS011;10469;42.720;23.252;2023-04-15T06:54:34;11.43;;;4.00;;
20619;SDS011;10469;42.720;23.252;2023-04-15T06:57:00;7.75;;;3.78;;
20619;SDS011;10469;42.720;23.252;2023-04-15T06:59:26;10.40;;;4.80;;
20619;SDS011;10469;42.720;23.252;2023-04-15T07:01:52;6.22;;;4.13;;
20619;SDS011;10469;42.720;23.252;2023-04-15T07:04:18;8.70;;;4.85;;
20619;SDS011;10469;42.720;23.252;2023-04-15T07:06:44;17.02;;;5.00;;
20619;SDS011;10469;42.720;23.252;2023-04-15T07:09:10;6.97;;;3.78;;
20619;SDS011;10469;42.720;23.252;2023-04-15T07:11:36;8.82;;;4.13;;
20619;SDS011;10469;42.720;23.252;2023-04-15T07:14:02;12.65;;;5.65;;
20619;SDS011;10469;42.720;23.252;2023-04-15T07:16:28;10.05;;;3.47;;
20619;SDS011;10469;42.720;23.252;2023-04-15T07:18:54;5.70;;;3.65;;
20619;SDS011;10469;42.720;23.252;2023-04-15T07:21:20;8.60;;;3.67;;
20619;SDS011;10469;42.720;23.252;2023-04-15T07:23:46;5.82;;;2.88;;
20619;SDS011;10469;42.720;23.252;2023-04-15T07:26:11;10.05;;;3.55;;
20619;SDS011;10469;42.720;23.252;2023-04-15T07:28:37;12.35;;;3.33;;
20619;SDS011;10469;42.720;23.252;2023-04-15T07:31:03;5.80;;;2.63;;
20619;SDS011;10469;42.720;23.252;2023-04-15T07:33:29;10.73;;;2.88;;
20619;SDS011;10469;42.720;23.252;2023-04-15T07:35:55;4.82;;;2.67;;
20619;SDS011;10469;42.720;23.252;2023-04-15T07:38:20;6.25;;;3.03;;
20619;SDS011;10469;42.720;23.252;2023-04-15T07:40:46;12.50;;;3.17;;
20619;SDS011;10469;42.720;23.252;2023-04-15T07:43:12;14.65;;;3.28;;
20619;SDS011;10469;42.720;23.252;2023-04-15T07:45:38;9.60;;;2.95;;
20619;SDS011;10469;42.720;23.252;2023-04-15T07:48:04;9.77;;;3.42;;
20619;SDS011;10469;42.720;23.252;2023-04-15T07:50:30;4.72;;;2.75;;
20619;SDS011;10469;42.720;23.252;2023-04-15T07:52:56;6.40;;;2.70;;
20619;SDS011;10469;42.720;23.252;2023-04-15T07:55:22;8.82;;;2.75;;
20619;SDS011;10469;42.720;23.252;2023-04-15T07:57:48;7.22;;;2.70;;
20619;SDS011;10469;42.720;23.252;2023-04-15T08:00:15;7.28;;;2.40;;
20619;SDS011;10469;42.720;23.252;2023-04-15T08:02:44;4.28;;;1.77;;
20619;SDS011;10469;42.720;23.252;2023-04-15T08:05:12;2.97;;;1.80;;
20619;SDS011;10469;42.720;23.252;2023-04-15T08:07:38;4.40;;;1.42;;
20619;SDS011;10469;42.720;23.252;2023-04-15T08:10:06;2.58;;;1.42;;
20619;SDS011;10469;42.720;23.252;2023-04-15T08:12:32;4.93;;;1.48;;
20619;SDS011;10469;42.720;23.252;2023-04-15T08:14:58;4.53;;;1.40;;
20619;SDS011;10469;42.720;23.252;2023-04-15T08:17:24;4.50;;;1.50;;
20619;SDS011;10469;42.720;23.252;2023-04-15T08:19:49;2.97;;;1.13;;
20619;SDS011;10469;42.720;23.252;2023-04-15T08:22:15;1.73;;;1.30;;
20619;SDS011;10469;42.720;23.252;2023-04-15T08:24:41;4.95;;;1.52;;
20619;SDS011;10469;42.720;23.252;2023-04-15T08:27:07;3.85;;;1.30;;
20619;SDS011;10469;42.720;23.252;2023-04-15T08:29:33;4.30;;;1.40;;
20619;SDS011;10469;42.720;23.252;2023-04-15T08:31:59;2.03;;;1.27;;
20619;SDS011;10469;42.720;23.252;2023-04-15T08:34:28;2.97;;;1.20;;
20619;SDS011;10469;42.720;23.252;2023-04-15T08:36:54;2.60;;;1.42;;
20619;SDS011;10469;42.720;23.252;2023-04-15T08:39:20;1.90;;;1.30;;
20619;SDS011;10469;42.720;23.252;2023-04-15T08:44:20;3.53;;;1.40;;
20619;SDS011;10469;42.720;23.252;2023-04-15T08:46:50;3.17;;;1.20;;
20619;SDS011;10469;42.720;23.252;2023-04-15T08:49:16;1.83;;;1.45;;
20619;SDS011;10469;42.720;23.252;2023-04-15T08:51:43;4.68;;;1.42;;
20619;SDS011;10469;42.720;23.252;2023-04-15T08:54:09;4.38;;;1.55;;
20619;SDS011;10469;42.720;23.252;2023-04-15T08:56:35;3.47;;;1.10;;
20619;SDS011;10469;42.720;23.252;2023-04-15T08:59:01;2.38;;;1.23;;
20619;SDS011;10469;42.720;23.252;2023-04-15T09:01:27;5.05;;;1.38;;
20619;SDS011;10469;42.720;23.252;2023-04-15T09:03:53;3.13;;;1.30;;
20619;SDS011;10469;42.720;23.252;2023-04-15T09:06:21;1.73;;;1.05;;
20619;SDS011;10469;42.720;23.252;2023-04-15T09:08:48;4.20;;;1.38;;
20619;SDS011;10469;42.720;23.252;2023-04-15T09:11:14;3.35;;;1.50;;
20619;SDS011;10469;42.720;23.252;2023-04-15T09:13:42;4.35;;;1.30;;
20619;SDS011;10469;42.720;23.252;2023-04-15T09:16:08;2.95;;;1.60;;
20619;SDS011;10469;42.720;23.252;2023-04-15T09:18:34;2.67;;;1.40;;
20619;SDS011;10469;42.720;23.252;2023-04-15T09:21:07;3.65;;;1.60;;
20619;SDS011;10469;42.720;23.252;2023-04-15T09:23:39;2.63;;;1.20;;
20619;SDS011;10469;42.720;23.252;2023-04-15T09:26:17;2.72;;;1.30;;
20619;SDS011;10469;42.720;23.252;2023-04-15T09:28:43;2.60;;;1.33;;
20619;SDS011;10469;42.720;23.252;2023-04-15T09:31:09;5.10;;;1.30;;
20619;SDS011;10469;42.720;23.252;2023-04-15T09:33:35;13.80;;;5.00;;
20619;SDS011;10469;42.720;23.252;2023-04-15T09:36:18;9.15;;;4.72;;
20619;SDS011;10469;42.720;23.252;2023-04-15T09:38:56;28.70;;;15.30;;
20619;SDS011;10469;42.720;23.252;2023-04-15T09:41:23;2.25;;;1.20;;
20619;SDS011;10469;42.720;23.252;2023-04-15T09:43:50;2.25;;;1.40;;
20619;SDS011;10469;42.720;23.252;2023-04-15T09:46:15;3.60;;;1.95;;
20619;SDS011;10469;42.720;23.252;2023-04-15T09:48:41;14.90;;;7.10;;
20619;SDS011;10469;42.720;23.252;2023-04-15T09:51:07;6.32;;;3.25;;
20619;SDS011;10469;42.720;23.252;2023-04-15T09:53:34;24.77;;;15.88;;
20619;SDS011;10469;42.720;23.252;2023-04-15T09:56:01;2.58;;;1.67;;
20619;SDS011;10469;42.720;23.252;2023-04-15T09:58:30;21.08;;;10.50;;
20619;SDS011;10469;42.720;23.252;2023-04-15T10:01:03;19.38;;;9.52;;
20619;SDS011;10469;42.720;23.252;2023-04-15T10:03:30;12.57;;;6.35;;
20619;SDS011;10469;42.720;23.252;2023-04-15T10:05:59;5.88;;;2.60;;
20619;SDS011;10469;42.720;23.252;2023-04-15T10:08:31;25.63;;;13.18;;
20619;SDS011;10469;42.720;23.252;2023-04-15T10:11:01;30.98;;;16.58;;
20619;SDS011;10469;42.720;23.252;2023-04-15T10:13:29;4.70;;;1.70;;
20619;SDS011;10469;42.720;23.252;2023-04-15T10:16:04;5.68;;;1.90;;
20619;SDS011;10469;42.720;23.252;2023-04-15T10:18:31;3.55;;;2.28;;
20619;SDS011;10469;42.720;23.252;2023-04-15T10:21:00;4.03;;;1.40;;
20619;SDS011;10469;42.720;23.252;2023-04-15T10:23:26;2.70;;;1.40;;
20619;SDS011;10469;42.720;23.252;2023-04-15T10:25:52;2.90;;;1.30;;
20619;SDS011;10469;42.720;23.252;2023-04-15T10:28:19;5.07;;;1.75;;
20619;SDS011;10469;42.720;23.252;2023-04-15T10:30:47;5.13;;;2.22;;
20619;SDS011;10469;42.720;23.252;2023-04-15T10:33:14;3.20;;;1.70;;
20619;SDS011;10469;42.720;23.252;2023-04-15T10:35:42;2.38;;;1.17;;
20619;SDS011;10469;42.720;23.252;2023-04-15T10:41:30;2.00;;;1.10;;
20619;SDS011;10469;42.720;23.252;2023-04-15T10:46:39;2.30;;;1.20;;
20619;SDS011;10469;42.720;23.252;2023-04-15T10:51:36;2.42;;;1.35;;
20619;SDS011;10469;42.720;23.252;2023-04-15T10:54:07;2.60;;;1.42;;
20619;SDS011;10469;42.720;23.252;2023-04-15T10:56:37;4.32;;;1.40;;
20619;SDS011;10469;42.720;23.252;2023-04-15T10:59:06;1.95;;;1.25;;
20619;SDS011;10469;42.720;23.252;2023-04-15T11:07:32;1.65;;;1.23;;
20619;SDS011;10469;42.720;23.252;2023-04-15T11:09:58;3.88;;;1.30;;
20619;SDS011;10469;42.720;23.252;2023-04-15T11:12:35;4.28;;;1.80;;
20619;SDS011;10469;42.720;23.252;2023-04-15T11:18:15;3.63;;;1.48;;
20619;SDS011;10469;42.720;23.252;2023-04-15T11:23:33;3.70;;;1.58;;
20619;SDS011;10469;42.720;23.252;2023-04-15T11:26:01;4.53;;;1.42;;
20619;SDS011;10469;42.720;23.252;2023-04-15T11:28:31;2.28;;;1.40;;
20619;SDS011;10469;42.720;23.252;2023-04-15T11:30:58;3.88;;;1.45;;
20619;SDS011;10469;42.720;23.252;2023-04-15T11:33:30;5.43;;;1.77;;
20619;SDS011;10469;42.720;23.252;2023-04-15T11:35:55;3.33;;;1.25;;
20619;SDS011;10469;42.720;23.252;2023-04-15T11:38:21;3.15;;;1.42;;
20619;SDS011;10469;42.720;23.252;2023-04-15T11:40:47;3.28;;;1.60;;
20619;SDS011;10469;42.720;23.252;2023-04-15T11:43:21;3.08;;;1.50;;
20619;SDS011;10469;42.720;23.252;2023-04-15T11:48:22;2.50;;;1.55;;
20619;SDS011;10469;42.720;23.252;2023-04-15T11:56:01;6.10;;;1.85;;
20619;SDS011;10469;42.720;23.252;2023-04-15T11:58:27;5.03;;;1.63;;
20619;SDS011;10469;42.720;23.252;2023-04-15T12:00:55;2.28;;;1.90;;
20619;SDS011;10469;42.720;23.252;2023-04-15T12:09:25;2.25;;;1.33;;
20619;SDS011;10469;42.720;23.252;2023-04-15T12:11:33;2.80;;;1.42;;
20619;SDS011;10469;42.720;23.252;2023-04-15T12:16:58;2.08;;;1.00;;
20619;SDS011;10469;42.720;23.252;2023-04-15T12:19:39;2.10;;;1.02;;
20619;SDS011;10469;42.720;23.252;2023-04-15T12:22:13;7.50;;;1.40;;
20619;SDS011;10469;42.720;23.252;2023-04-15T12:24:41;3.40;;;1.63;;
20619;SDS011;10469;42.720;23.252;2023-04-15T12:27:13;2.77;;;1.50;;
20619;SDS011;10469;42.720;23.252;2023-04-15T12:29:40;3.45;;;1.60;;
20619;SDS011;10469;42.720;23.252;2023-04-15T12:32:11;2.20;;;1.50;;
20619;SDS011;10469;42.720;23.252;2023-04-15T12:34:50;2.95;;;1.60;;
20619;SDS011;10469;42.720;23.252;2023-04-15T12:37:18;3.42;;;1.40;;
20619;SDS011;10469;42.720;23.252;2023-04-15T12:39:46;3.03;;;1.40;;
20619;SDS011;10469;42.720;23.252;2023-04-15T12:42:13;1.95;;;1.00;;
20619;SDS011;10469;42.720;23.252;2023-04-15T12:44:40;2.65;;;1.13;;
20619;SDS011;10469;42.720;23.252;2023-04-15T12:47:07;4.22;;;1.52;;
20619;SDS011;10469;42.720;23.252;2023-04-15T12:49:33;2.22;;;1.30;;
20619;SDS011;10469;42.720;23.252;2023-04-15T12:51:59;3.20;;;1.45;;
20619;SDS011;10469;42.720;23.252;2023-04-15T12:54:26;2.80;;;1.80;;
20619;SDS011;10469;42.720;23.252;2023-04-15T12:56:53;2.65;;;1.33;;
20619;SDS011;10469;42.720;23.252;2023-04-15T12:59:19;2.22;;;1.00;;
20619;SDS011;10469;42.720;23.252;2023-04-15T13:01:46;2.50;;;1.10;;
20619;SDS011;10469;42.720;23.252;2023-04-15T13:04:13;1.90;;;1.23;;
20619;SDS011;10469;42.720;23.252;2023-04-15T13:06:39;2.03;;;1.48;;
20619;SDS011;10469;42.720;23.252;2023-04-15T13:09:05;1.90;;;1.30;;
20619;SDS011;10469;42.720;23.252;2023-04-15T13:11:31;1.38;;;1.17;;
20619;SDS011;10469;42.720;23.252;2023-04-15T13:14:01;1.77;;;1.10;;
20619;SDS011;10469;42.720;23.252;2023-04-15T13:16:31;1.10;;;1.00;;
20619;SDS011;10469;42.720;23.252;2023-04-15T13:18:58;2.63;;;1.40;;
20619;SDS011;10469;42.720;23.252;2023-04-15T13:21:24;1.73;;;1.45;;
20619;SDS011;10469;42.720;23.252;2023-04-15T13:23:51;1.70;;;1.20;;
20619;SDS011;10469;42.720;23.252;2023-04-15T13:26:17;3.40;;;1.15;;
20619;SDS011;10469;42.720;23.252;2023-04-15T13:28:43;2.47;;;1.10;;
20619;SDS011;10469;42.720;23.252;2023-04-15T13:31:10;1.90;;;1.00;;
20619;SDS011;10469;42.720;23.252;2023-04-15T13:33:36;4.15;;;1.13;;
20619;SDS011;10469;42.720;23.252;2023-04-15T13:36:04;2.35;;;1.27;;
20619;SDS011;10469;42.720;23.252;2023-04-15T13:38:30;1.20;;;1.10;;
20619;SDS011;10469;42.720;23.252;2023-04-15T13:40:56;1.55;;;1.10;;
20619;SDS011;10469;42.720;23.252;2023-04-15T13:43:22;1.83;;;1.05;;
20619;SDS011;10469;42.720;23.252;2023-04-15T13:45:48;6.22;;;1.20;;
20619;SDS011;10469;42.720;23.252;2023-04-15T13:48:14;2.75;;;1.20;;
20619;SDS011;10469;42.720;23.252;2023-04-15T13:50:40;2.28;;;1.00;;
20619;SDS011;10469;42.720;23.252;2023-04-15T13:53:09;1.38;;;1.00;;
20619;SDS011;10469;42.720;23.252;2023-04-15T13:55:38;3.58;;;1.17;;
20619;SDS011;10469;42.720;23.252;2023-04-15T13:58:10;2.42;;;1.40;;
20619;SDS011;10469;42.720;23.252;2023-04-15T14:00:35;2.97;;;1.30;;
20619;SDS011;10469;42.720;23.252;2023-04-15T14:03:04;3.65;;;1.17;;
20619;SDS011;10469;42.720;23.252;2023-04-15T14:05:31;1.80;;;1.02;;
20619;SDS011;10469;42.720;23.252;2023-04-15T14:07:58;1.60;;;1.00;;
20619;SDS011;10469;42.720;23.252;2023-04-15T14:10:23;2.95;;;1.38;;
20619;SDS011;10469;42.720;23.252;2023-04-15T14:12:49;2.00;;;1.00;;
20619;SDS011;10469;42.720;23.252;2023-04-15T14:15:15;4.45;;;1.20;;
20619;SDS011;10469;42.720;23.252;2023-04-15T14:17:41;4.07;;;1.27;;
20619;SDS011;10469;42.720;23.252;2023-04-15T14:20:07;2.10;;;1.67;;
20619;SDS011;10469;42.720;23.252;2023-04-15T14:22:33;1.90;;;1.20;;
20619;SDS011;10469;42.720;23.252;2023-04-15T14:24:59;2.10;;;0.95;;
20619;SDS011;10469;42.720;23.252;2023-04-15T14:27:25;4.60;;;1.17;;
20619;SDS011;10469;42.720;23.252;2023-04-15T14:29:51;4.20;;;1.10;;
20619;SDS011;10469;42.720;23.252;2023-04-15T14:32:18;3.83;;;1.20;;
20619;SDS011;10469;42.720;23.252;2023-04-15T14:34:43;2.00;;;1.20;;
20619;SDS011;10469;42.720;23.252;2023-04-15T14:37:09;1.10;;;1.00;;
20619;SDS011;10469;42.720;23.252;2023-04-15T14:39:35;2.75;;;1.50;;
20619;SDS011;10469;42.720;23.252;2023-04-15T14:42:00;2.88;;;1.23;;
20619;SDS011;10469;42.720;23.252;2023-04-15T14:44:26;0.93;;;0.88;;
20619;SDS011;10469;42.720;23.252;2023-04-15T14:46:52;3.05;;;1.10;;
20619;SDS011;10469;42.720;23.252;2023-04-15T14:49:18;1.83;;;1.27;;
20619;SDS011;10469;42.720;23.252;2023-04-15T14:51:44;1.83;;;1.23;;
20619;SDS011;10469;42.720;23.252;2023-04-15T14:54:10;2.00;;;1.20;;
20619;SDS011;10469;42.720;23.252;2023-04-15T14:56:36;3.15;;;1.27;;
20619;SDS011;10469;42.720;23.252;2023-04-15T14:59:01;2.63;;;0.93;;
20619;SDS011;10469;42.720;23.252;2023-04-15T15:01:27;5.28;;;1.20;;
20619;SDS011;10469;42.720;23.252;2023-04-15T15:03:56;3.13;;;1.10;;
20619;SDS011;10469;42.720;23.252;2023-04-15T15:06:22;1.38;;;1.10;;
20619;SDS011;10469;42.720;23.252;2023-04-15T15:08:48;1.83;;;1.05;;
20619;SDS011;10469;42.720;23.252;2023-04-15T15:11:14;3.17;;;1.40;;
20619;SDS011;10469;42.720;23.252;2023-04-15T15:13:41;1.23;;;1.10;;
20619;SDS011;10469;42.720;23.252;2023-04-15T15:16:06;1.67;;;1.05;;
20619;SDS011;10469;42.720;23.252;2023-04-15T15:18:32;2.92;;;1.13;;
20619;SDS011;10469;42.720;23.252;2023-04-15T15:20:58;2.45;;;1.25;;
20619;SDS011;10469;42.720;23.252;2023-04-15T15:23:23;3.50;;;1.10;;
20619;SDS011;10469;42.720;23.252;2023-04-15T15:25:49;4.65;;;1.60;;
20619;SDS011;10469;42.720;23.252;2023-04-15T15:28:15;2.53;;;1.10;;
20619;SDS011;10469;42.720;23.252;2023-04-15T15:30:40;0.90;;;0.82;;
20619;SDS011;10469;42.720;23.252;2023-04-15T15:33:06;2.95;;;1.10;;
20619;SDS011;10469;42.720;23.252;2023-04-15T15:35:32;1.10;;;0.98;;
20619;SDS011;10469;42.720;23.252;2023-04-15T15:37:58;2.08;;;1.48;;
20619;SDS011;10469;42.720;23.252;2023-04-15T15:40:25;1.85;;;1.40;;
20619;SDS011;10469;42.720;23.252;2023-04-15T15:42:51;3.92;;;1.20;;
20619;SDS011;10469;42.720;23.252;2023-04-15T15:45:17;2.38;;;1.38;;
20619;SDS011;10469;42.720;23.252;2023-04-15T15:47:42;2.63;;;1.25;;
20619;SDS011;10469;42.720;23.252;2023-04-15T15:50:08;3.15;;;1.30;;
20619;SDS011;10469;42.720;23.252;2023-04-15T15:52:34;3.13;;;1.00;;
20619;SDS011;10469;42.720;23.252;2023-04-15T15:55:00;3.22;;;1.20;;
20619;SDS011;10469;42.720;23.252;2023-04-15T15:57:26;2.10;;;1.15;;
20619;SDS011;10469;42.720;23.252;2023-04-15T15:59:51;2.45;;;1.38;;
20619;SDS011;10469;42.720;23.252;2023-04-15T16:02:17;2.13;;;1.33;;
20619;SDS011;10469;42.720;23.252;2023-04-15T16:04:43;5.85;;;1.45;;
20619;SDS011;10469;42.720;23.252;2023-04-15T16:07:09;3.28;;;1.60;;
20619;SDS011;10469;42.720;23.252;2023-04-15T16:09:36;2.97;;;1.15;;
20619;SDS011;10469;42.720;23.252;2023-04-15T16:12:02;1.58;;;1.30;;
20619;SDS011;10469;42.720;23.252;2023-04-15T16:14:28;4.28;;;1.20;;